createdAt,value
2022-11-15T00:00:21.413Z,930.57
2022-11-15T00:01:21.436Z,930.55
2022-11-15T00:02:21.505Z,930.56
2022-11-15T00:03:21.478Z,930.57
2022-11-15T00:04:21.480Z,930.58
2022-11-15T00:05:21.499Z,930.60
2022-11-15T00:06:21.523Z,930.55
2022-11-15T00:07:48.260Z,930.58
2022-11-15T00:08:21.601Z,930.56
2022-11-15T00:09:21.570Z,930.54
2022-11-15T00:10:21.604Z,930.57
2022-11-15T00:11:21.597Z,930.56
2022-11-15T00:12:21.616Z,930.60
2022-11-15T00:13:21.631Z,930.65
2022-11-15T00:14:21.650Z,930.65
2022-11-15T00:15:21.671Z,930.70
2022-11-15T00:16:21.681Z,930.72
2022-11-15T00:17:21.699Z,930.74
2022-11-15T00:18:21.716Z,930.73
2022-11-15T00:19:21.732Z,930.70
2022-11-15T00:20:21.749Z,930.69
2022-11-15T00:21:21.765Z,930.71
2022-11-15T00:22:21.782Z,930.68
2022-11-15T00:23:21.800Z,930.68
2022-11-15T00:24:21.818Z,930.70
2022-11-15T00:25:21.835Z,930.72
2022-11-15T00:26:21.868Z,930.77
2022-11-15T00:27:21.864Z,930.74
2022-11-15T00:28:21.882Z,930.82
2022-11-15T00:29:21.900Z,930.80
2022-11-15T00:30:21.918Z,930.82
2022-11-15T00:31:21.932Z,930.82
2022-11-15T00:32:21.951Z,930.82
2022-11-15T00:33:21.964Z,930.86
2022-11-15T00:34:21.983Z,930.89
2022-11-15T00:35:22.000Z,930.87
2022-11-15T00:36:22.017Z,930.84
2022-11-15T00:37:22.031Z,930.87
2022-11-15T00:38:22.049Z,930.87
2022-11-15T00:39:22.067Z,930.93
2022-11-15T00:40:22.083Z,930.94
2022-11-15T00:41:22.099Z,930.96
2022-11-15T00:42:22.140Z,930.97
2022-11-15T00:43:22.132Z,931.02
2022-11-15T00:44:22.148Z,931.00
2022-11-15T00:45:22.165Z,931.04
2022-11-15T00:46:22.183Z,931.06
2022-11-15T00:47:22.199Z,931.09
2022-11-15T00:48:22.216Z,931.08
2022-11-15T00:49:22.232Z,931.09
2022-11-15T00:50:22.249Z,931.10
2022-11-15T00:51:22.266Z,931.10
2022-11-15T00:52:22.282Z,931.14
2022-11-15T00:53:22.300Z,931.17
2022-11-15T00:54:22.316Z,931.16
2022-11-15T00:55:22.333Z,931.18
2022-11-15T00:56:22.351Z,931.18
2022-11-15T00:57:22.366Z,931.17
2022-11-15T00:58:22.408Z,931.24
2022-11-15T00:59:22.398Z,931.23
2022-11-15T01:00:22.415Z,931.22
2022-11-15T01:01:22.504Z,931.23
2022-11-15T01:02:22.449Z,931.21
2022-11-15T01:03:22.468Z,931.23
2022-11-15T01:04:22.495Z,931.25
2022-11-15T01:05:22.503Z,931.26
2022-11-15T01:06:22.514Z,931.27
2022-11-15T01:07:22.592Z,931.27
2022-11-15T01:08:22.551Z,931.33
2022-11-15T01:09:22.569Z,931.32
2022-11-15T01:10:22.583Z,931.36
2022-11-15T01:11:22.597Z,931.37
2022-11-15T01:12:22.615Z,931.35
2022-11-15T01:13:22.634Z,931.36
2022-11-15T01:14:25.361Z,931.36
2022-11-15T01:15:22.663Z,931.37
2022-11-15T01:16:22.680Z,931.36
2022-11-15T01:17:22.699Z,931.35
2022-11-15T01:18:22.715Z,931.35
2022-11-15T01:19:22.731Z,931.37
2022-11-15T01:20:22.747Z,931.35
2022-11-15T01:21:22.762Z,931.37
2022-11-15T01:22:22.783Z,931.37
2022-11-15T01:23:22.798Z,931.39
2022-11-15T01:24:22.814Z,931.40
2022-11-15T01:25:22.829Z,931.37
2022-11-15T01:26:22.848Z,931.36
2022-11-15T01:27:22.865Z,931.36
2022-11-15T01:28:22.880Z,931.34
2022-11-15T01:29:22.898Z,931.34
2022-11-15T01:30:22.934Z,931.33
2022-11-15T01:31:22.930Z,931.33
2022-11-15T01:32:22.948Z,931.36
2022-11-15T01:33:22.963Z,931.34
2022-11-15T01:34:22.986Z,931.37
2022-11-15T01:35:22.997Z,931.37
2022-11-15T01:36:23.015Z,931.44
2022-11-15T01:37:23.236Z,931.41
2022-11-15T01:38:23.050Z,931.46
2022-11-15T01:39:23.065Z,931.43
2022-11-15T01:40:23.081Z,931.42
2022-11-15T01:41:23.100Z,931.41
2022-11-15T01:42:23.113Z,931.40
2022-11-15T01:43:23.129Z,931.42
2022-11-15T01:44:23.144Z,931.38
2022-11-15T01:45:23.162Z,931.38
2022-11-15T01:46:23.198Z,931.36
2022-11-15T01:47:23.197Z,931.36
2022-11-15T01:48:23.211Z,931.38
2022-11-15T01:49:23.231Z,931.39
2022-11-15T01:50:23.244Z,931.39
2022-11-15T01:51:23.260Z,931.46
2022-11-15T01:52:23.280Z,931.43
2022-11-15T01:53:23.295Z,931.45
2022-11-15T01:54:23.314Z,931.44
2022-11-15T01:55:23.327Z,931.45
2022-11-15T01:56:23.345Z,931.43
2022-11-15T01:57:23.363Z,931.42
2022-11-15T01:58:23.377Z,931.40
2022-11-15T01:59:23.393Z,931.42
2022-11-15T02:00:23.411Z,931.36
2022-11-15T02:01:23.480Z,931.37
2022-11-15T02:02:23.463Z,931.37
2022-11-15T02:03:23.459Z,931.37
2022-11-15T02:04:23.476Z,931.33
2022-11-15T02:05:23.498Z,931.39
2022-11-15T02:06:23.511Z,931.39
2022-11-15T02:07:23.657Z,931.41
2022-11-15T02:08:23.543Z,931.45
2022-11-15T02:09:23.559Z,931.41
2022-11-15T02:10:23.582Z,931.48
2022-11-15T02:11:23.591Z,931.48
2022-11-15T02:12:23.610Z,931.50
2022-11-15T02:13:23.625Z,931.48
2022-11-15T02:14:23.640Z,931.48
2022-11-15T02:15:23.656Z,931.44
2022-11-15T02:16:23.672Z,931.43
2022-11-15T02:17:23.690Z,931.45
2022-11-15T02:18:23.727Z,931.40
2022-11-15T02:19:23.722Z,931.40
2022-11-15T02:20:23.740Z,931.42
2022-11-15T02:21:23.756Z,931.41
2022-11-15T02:22:23.782Z,931.40
2022-11-15T02:23:23.790Z,931.39
2022-11-15T02:24:23.806Z,931.39
2022-11-15T02:25:23.823Z,931.43
2022-11-15T02:26:23.838Z,931.43
2022-11-15T02:27:23.855Z,931.43
2022-11-15T02:28:23.872Z,931.50
2022-11-15T02:29:23.888Z,931.47
2022-11-15T02:30:23.905Z,931.47
2022-11-15T02:31:23.923Z,931.47
2022-11-15T02:32:23.939Z,931.46
2022-11-15T02:33:23.958Z,931.44
2022-11-15T02:34:23.990Z,931.43
2022-11-15T02:35:23.988Z,931.46
2022-11-15T02:36:24.004Z,931.43
2022-11-15T02:37:24.025Z,931.43
2022-11-15T02:38:24.035Z,931.39
2022-11-15T02:39:24.050Z,931.43
2022-11-15T02:40:24.068Z,931.46
2022-11-15T02:41:24.084Z,931.44
2022-11-15T02:42:24.101Z,931.42
2022-11-15T02:43:24.117Z,931.46
2022-11-15T02:44:24.135Z,931.41
2022-11-15T02:45:24.153Z,931.41
2022-11-15T02:46:24.167Z,931.40
2022-11-15T02:47:24.184Z,931.38
2022-11-15T02:48:24.202Z,931.35
2022-11-15T02:49:24.217Z,931.32
2022-11-15T02:50:24.256Z,931.30
2022-11-15T02:51:24.249Z,931.30
2022-11-15T02:52:24.265Z,931.31
2022-11-15T02:53:24.281Z,931.30
2022-11-15T02:54:24.298Z,931.28
2022-11-15T02:55:24.314Z,931.25
2022-11-15T02:56:24.333Z,931.29
2022-11-15T02:57:24.348Z,931.24
2022-11-15T02:58:24.365Z,931.24
2022-11-15T02:59:24.381Z,931.24
2022-11-15T03:00:24.397Z,931.25
2022-11-15T03:01:24.509Z,931.26
2022-11-15T03:02:24.430Z,931.29
2022-11-15T03:03:24.445Z,931.29
2022-11-15T03:04:24.460Z,931.31
2022-11-15T03:05:24.479Z,931.31
2022-11-15T03:06:24.514Z,931.33
2022-11-15T03:07:24.605Z,931.27
2022-11-15T03:08:24.531Z,931.27
2022-11-15T03:09:24.542Z,931.27
2022-11-15T03:10:24.561Z,931.27
2022-11-15T03:11:24.576Z,931.31
2022-11-15T03:12:24.591Z,931.27
2022-11-15T03:13:24.609Z,931.32
2022-11-15T03:14:24.625Z,931.29
2022-11-15T03:15:24.640Z,931.26
2022-11-15T03:16:24.657Z,931.27
2022-11-15T03:17:24.677Z,931.29
2022-11-15T03:18:24.708Z,931.27
2022-11-15T03:19:24.707Z,931.26
2022-11-15T03:20:24.723Z,931.28
2022-11-15T03:21:24.739Z,931.29
2022-11-15T03:22:24.775Z,931.33
2022-11-15T03:23:24.793Z,931.31
2022-11-15T03:24:26.160Z,931.31
2022-11-15T03:25:24.806Z,931.32
2022-11-15T03:26:24.822Z,931.30
2022-11-15T03:27:24.836Z,931.27
2022-11-15T03:28:24.854Z,931.28
2022-11-15T03:29:24.871Z,931.32
2022-11-15T03:30:24.985Z,931.28
2022-11-15T03:31:24.902Z,931.28
2022-11-15T03:32:24.924Z,931.27
2022-11-15T03:33:24.935Z,931.28
2022-11-15T03:34:24.955Z,931.32
2022-11-15T03:35:24.969Z,931.30
2022-11-15T03:36:24.987Z,931.28
2022-11-15T03:37:25.001Z,931.30
2022-11-15T03:38:25.069Z,931.33
2022-11-15T03:39:25.033Z,931.29
2022-11-15T03:40:25.049Z,931.28
2022-11-15T03:41:25.083Z,931.28
2022-11-15T03:42:25.082Z,931.29
2022-11-15T03:43:25.098Z,931.28
2022-11-15T03:44:25.114Z,931.31
2022-11-15T03:45:25.132Z,931.35
2022-11-15T03:46:25.148Z,931.33
2022-11-15T03:47:25.162Z,931.32
2022-11-15T03:48:25.180Z,931.39
2022-11-15T03:49:25.199Z,931.42
2022-11-15T03:50:25.218Z,931.36
2022-11-15T03:51:25.229Z,931.39
2022-11-15T03:52:25.245Z,931.39
2022-11-15T03:53:25.263Z,931.40
2022-11-15T03:54:25.307Z,931.40
2022-11-15T03:55:25.294Z,931.35
2022-11-15T03:56:25.312Z,931.36
2022-11-15T03:57:25.329Z,931.37
2022-11-15T03:58:25.344Z,931.31
2022-11-15T03:59:25.360Z,931.33
2022-11-15T04:00:25.377Z,931.34
2022-11-15T04:01:25.494Z,931.32
2022-11-15T04:02:25.417Z,931.32
2022-11-15T04:03:25.423Z,931.34
2022-11-15T04:04:25.440Z,931.36
2022-11-15T04:05:25.461Z,931.33
2022-11-15T04:06:25.478Z,931.34
2022-11-15T04:07:25.535Z,931.33
2022-11-15T04:08:25.506Z,931.31
2022-11-15T04:09:25.523Z,931.27
2022-11-15T04:10:25.558Z,931.27
2022-11-15T04:11:25.555Z,931.24
2022-11-15T04:12:25.571Z,931.25
2022-11-15T04:13:25.587Z,931.23
2022-11-15T04:14:25.603Z,931.20
2022-11-15T04:15:25.620Z,931.24
2022-11-15T04:16:25.640Z,931.23
2022-11-15T04:17:25.654Z,931.24
2022-11-15T04:18:25.670Z,931.21
2022-11-15T04:19:25.686Z,931.21
2022-11-15T04:20:25.700Z,931.23
2022-11-15T04:21:25.717Z,931.22
2022-11-15T04:22:25.733Z,931.20
2022-11-15T04:23:25.753Z,931.21
2022-11-15T04:24:25.767Z,931.25
2022-11-15T04:25:31.091Z,931.22
2022-11-15T04:26:25.821Z,931.22
2022-11-15T04:27:25.814Z,931.26
2022-11-15T04:28:25.834Z,931.22
2022-11-15T04:29:25.850Z,931.18
2022-11-15T04:30:25.878Z,931.17
2022-11-15T04:31:25.882Z,931.15
2022-11-15T04:32:25.896Z,931.14
2022-11-15T04:33:25.912Z,931.14
2022-11-15T04:34:25.930Z,931.11
2022-11-15T04:35:25.944Z,931.12
2022-11-15T04:36:25.960Z,931.11
2022-11-15T04:37:25.977Z,931.08
2022-11-15T04:38:25.996Z,931.08
2022-11-15T04:39:26.008Z,931.09
2022-11-15T04:40:26.026Z,931.09
2022-11-15T04:41:26.043Z,931.08
2022-11-15T04:42:26.077Z,931.07
2022-11-15T04:43:26.072Z,931.07
2022-11-15T04:44:26.090Z,931.06
2022-11-15T04:45:26.107Z,931.05
2022-11-15T04:46:26.123Z,931.05
2022-11-15T04:47:26.140Z,931.00
2022-11-15T04:48:26.160Z,931.02
2022-11-15T04:49:26.173Z,931.06
2022-11-15T04:50:26.188Z,931.02
2022-11-15T04:51:26.212Z,931.03
2022-11-15T04:52:26.223Z,931.05
2022-11-15T04:53:26.235Z,931.03
2022-11-15T04:54:26.254Z,931.04
2022-11-15T04:55:26.275Z,931.02
2022-11-15T04:56:26.283Z,931.00
2022-11-15T04:57:26.301Z,930.98
2022-11-15T04:58:26.334Z,931.00
2022-11-15T04:59:26.335Z,931.00
2022-11-15T05:00:26.349Z,930.98
2022-11-15T05:01:26.389Z,930.98
2022-11-15T05:02:26.380Z,931.02
2022-11-15T05:03:26.398Z,931.01
2022-11-15T05:04:26.415Z,931.05
2022-11-15T05:05:26.431Z,931.02
2022-11-15T05:06:26.447Z,931.00
2022-11-15T05:07:26.569Z,930.97
2022-11-15T05:08:26.479Z,930.95
2022-11-15T05:09:26.494Z,930.95
2022-11-15T05:10:26.509Z,930.94
2022-11-15T05:11:26.526Z,930.90
2022-11-15T05:12:26.543Z,930.96
2022-11-15T05:13:26.558Z,930.97
2022-11-15T05:14:26.593Z,930.98
2022-11-15T05:15:26.592Z,931.02
2022-11-15T05:16:26.606Z,931.04
2022-11-15T05:17:26.623Z,931.07
2022-11-15T05:18:26.639Z,931.05
2022-11-15T05:19:26.655Z,931.09
2022-11-15T05:20:26.670Z,931.04
2022-11-15T05:21:26.688Z,931.12
2022-11-15T05:22:26.703Z,931.08
2022-11-15T05:23:26.721Z,931.09
2022-11-15T05:24:26.738Z,931.12
2022-11-15T05:25:26.751Z,931.10
2022-11-15T05:26:26.771Z,931.11
2022-11-15T05:27:26.783Z,931.05
2022-11-15T05:28:26.802Z,931.04
2022-11-15T05:29:26.817Z,931.03
2022-11-15T05:30:26.850Z,931.02
2022-11-15T05:31:26.848Z,930.98
2022-11-15T05:32:26.865Z,931.01
2022-11-15T05:33:26.882Z,930.98
2022-11-15T05:34:26.899Z,930.96
2022-11-15T05:35:26.912Z,930.94
2022-11-15T05:36:26.931Z,930.95
2022-11-15T05:37:26.945Z,930.96
2022-11-15T05:38:26.964Z,930.96
2022-11-15T05:39:26.981Z,930.98
2022-11-15T05:40:26.994Z,930.99
2022-11-15T05:41:27.013Z,930.99
2022-11-15T05:42:27.027Z,930.95
2022-11-15T05:43:27.042Z,930.95
2022-11-15T05:44:27.062Z,930.99
2022-11-15T05:45:27.330Z,931.00
2022-11-15T05:46:27.107Z,931.02
2022-11-15T05:47:27.104Z,931.02
2022-11-15T05:48:27.123Z,931.02
2022-11-15T05:49:27.138Z,930.99
2022-11-15T05:50:27.155Z,930.97
2022-11-15T05:51:27.171Z,930.96
2022-11-15T05:52:27.186Z,931.02
2022-11-15T05:53:27.204Z,930.99
2022-11-15T05:54:27.218Z,930.99
2022-11-15T05:55:27.235Z,931.00
2022-11-15T05:56:27.252Z,931.00
2022-11-15T05:57:27.268Z,930.96
2022-11-15T05:58:27.283Z,930.94
2022-11-15T05:59:27.299Z,930.92
2022-11-15T06:00:27.315Z,930.94
2022-11-15T06:01:27.333Z,930.91
2022-11-15T06:02:27.394Z,930.93
2022-11-15T06:03:27.363Z,930.92
2022-11-15T06:04:27.380Z,930.95
2022-11-15T06:05:27.394Z,930.97
2022-11-15T06:06:27.412Z,931.00
2022-11-15T06:07:27.567Z,931.00
2022-11-15T06:08:27.445Z,931.04
2022-11-15T06:09:27.459Z,931.06
2022-11-15T06:10:27.483Z,931.06
2022-11-15T06:11:27.494Z,931.09
2022-11-15T06:12:27.509Z,931.09
2022-11-15T06:13:27.531Z,931.08
2022-11-15T06:14:27.543Z,931.12
2022-11-15T06:15:27.557Z,931.03
2022-11-15T06:16:27.571Z,931.03
2022-11-15T06:17:27.588Z,931.01
2022-11-15T06:18:27.627Z,931.02
2022-11-15T06:19:27.619Z,931.01
2022-11-15T06:20:27.638Z,931.01
2022-11-15T06:21:27.654Z,931.03
2022-11-15T06:22:27.670Z,931.02
2022-11-15T06:23:27.688Z,931.04
2022-11-15T06:24:27.701Z,931.04
2022-11-15T06:25:27.721Z,931.06
2022-11-15T06:26:27.739Z,931.07
2022-11-15T06:27:27.747Z,931.11
2022-11-15T06:28:27.764Z,931.07
2022-11-15T06:29:27.781Z,931.06
2022-11-15T06:30:27.808Z,931.08
2022-11-15T06:31:27.813Z,931.09
2022-11-15T06:32:27.828Z,931.08
2022-11-15T06:33:27.843Z,931.05
2022-11-15T06:34:27.879Z,931.08
2022-11-15T06:35:27.877Z,931.07
2022-11-15T06:36:27.894Z,931.10
2022-11-15T06:37:27.911Z,931.11
2022-11-15T06:38:27.924Z,931.10
2022-11-15T06:39:27.940Z,931.12
2022-11-15T06:40:27.957Z,931.11
2022-11-15T06:41:27.973Z,931.10
2022-11-15T06:42:27.989Z,931.15
2022-11-15T06:43:28.113Z,931.14
2022-11-15T06:44:28.020Z,931.12
2022-11-15T06:45:28.038Z,931.14
2022-11-15T06:46:28.071Z,931.15
2022-11-15T06:47:28.070Z,931.18
2022-11-15T06:48:28.086Z,931.12
2022-11-15T06:49:28.103Z,931.22
2022-11-15T06:50:28.137Z,931.20
2022-11-15T06:51:28.145Z,931.21
2022-11-15T06:52:28.148Z,931.23
2022-11-15T06:53:28.181Z,931.23
2022-11-15T06:54:28.182Z,931.23
2022-11-15T06:55:28.197Z,931.21
2022-11-15T06:56:28.215Z,931.20
2022-11-15T06:57:28.229Z,931.19
2022-11-15T06:58:28.247Z,931.19
2022-11-15T06:59:28.262Z,931.16
2022-11-15T07:00:28.280Z,931.16
2022-11-15T07:01:28.373Z,931.18
2022-11-15T07:02:28.314Z,931.20
2022-11-15T07:03:28.419Z,931.16
2022-11-15T07:04:28.342Z,931.19
2022-11-15T07:05:28.357Z,931.17
2022-11-15T07:06:28.390Z,931.20
2022-11-15T07:07:28.448Z,931.19
2022-11-15T07:08:28.406Z,931.22
2022-11-15T07:09:28.422Z,931.20
2022-11-15T07:10:28.488Z,931.16
2022-11-15T07:11:28.453Z,931.16
2022-11-15T07:12:28.470Z,931.14
2022-11-15T07:13:28.553Z,931.11
2022-11-15T07:14:28.505Z,931.11
2022-11-15T07:15:28.518Z,931.16
2022-11-15T07:16:28.534Z,931.16
2022-11-15T07:17:28.548Z,931.21
2022-11-15T07:18:28.566Z,931.20
2022-11-15T07:19:28.581Z,931.24
2022-11-15T07:20:28.639Z,931.23
2022-11-15T07:21:28.611Z,931.25
2022-11-15T07:22:28.696Z,931.30
2022-11-15T07:23:28.923Z,931.32
2022-11-15T07:24:28.658Z,931.35
2022-11-15T07:25:28.677Z,931.34
2022-11-15T07:26:28.693Z,931.35
2022-11-15T07:27:28.707Z,931.36
2022-11-15T07:28:28.725Z,931.41
2022-11-15T07:29:28.742Z,931.39
2022-11-15T07:30:28.827Z,931.39
2022-11-15T07:31:28.778Z,931.43
2022-11-15T07:32:28.787Z,931.45
2022-11-15T07:33:29.218Z,931.46
2022-11-15T07:34:28.820Z,931.49
2022-11-15T07:35:28.839Z,931.49
2022-11-15T07:36:28.850Z,931.45
2022-11-15T07:37:28.869Z,931.42
2022-11-15T07:38:28.902Z,931.40
2022-11-15T07:39:28.900Z,931.37
2022-11-15T07:40:28.915Z,931.32
2022-11-15T07:41:28.933Z,931.35
2022-11-15T07:42:28.949Z,931.35
2022-11-15T07:43:29.317Z,931.34
2022-11-15T07:44:28.979Z,931.37
2022-11-15T07:45:29.401Z,931.37
2022-11-15T07:46:29.009Z,931.42
2022-11-15T07:47:29.026Z,931.44
2022-11-15T07:48:42.236Z,931.51
2022-11-15T07:49:29.058Z,931.54
2022-11-15T07:50:29.074Z,931.51
2022-11-15T07:51:29.088Z,931.48
2022-11-15T07:52:29.114Z,931.48
2022-11-15T07:53:29.295Z,931.45
2022-11-15T07:54:29.156Z,931.41
2022-11-15T07:55:29.155Z,931.40
2022-11-15T07:56:29.169Z,931.42
2022-11-15T07:57:29.185Z,931.41
2022-11-15T07:58:29.203Z,931.42
2022-11-15T07:59:29.239Z,931.41
2022-11-15T08:00:29.234Z,931.40
2022-11-15T08:01:29.513Z,931.43
2022-11-15T08:02:30.687Z,931.43
2022-11-15T08:03:29.581Z,931.43
2022-11-15T08:04:29.296Z,931.45
2022-11-15T08:05:29.324Z,931.46
2022-11-15T08:06:29.337Z,931.44
2022-11-15T08:07:29.413Z,931.48
2022-11-15T08:08:29.360Z,931.49
2022-11-15T08:09:29.380Z,931.43
2022-11-15T08:10:29.413Z,931.46
2022-11-15T08:11:29.408Z,931.48
2022-11-15T08:12:29.571Z,931.49
2022-11-15T08:13:29.800Z,931.54
2022-11-15T08:14:29.461Z,931.51
2022-11-15T08:15:29.472Z,931.57
2022-11-15T08:16:29.487Z,931.61
2022-11-15T08:17:29.505Z,931.63
2022-11-15T08:18:29.520Z,931.59
2022-11-15T08:19:29.535Z,931.64
2022-11-15T08:20:29.550Z,931.66
2022-11-15T08:21:29.566Z,931.71
2022-11-15T08:22:29.581Z,931.68
2022-11-15T08:23:30.136Z,931.71
2022-11-15T08:24:29.613Z,931.72
2022-11-15T08:25:29.629Z,931.71
2022-11-15T08:26:29.664Z,931.72
2022-11-15T08:27:29.784Z,931.72
2022-11-15T08:28:29.677Z,931.71
2022-11-15T08:29:29.692Z,931.73
2022-11-15T08:30:29.730Z,931.69
2022-11-15T08:31:29.724Z,931.72
2022-11-15T08:32:29.741Z,931.70
2022-11-15T08:33:30.175Z,931.73
2022-11-15T08:34:29.773Z,931.74
2022-11-15T08:35:29.788Z,931.80
2022-11-15T08:36:34.790Z,931.85
2022-11-15T08:37:29.819Z,931.87
2022-11-15T08:38:30.334Z,931.88
2022-11-15T08:39:29.852Z,931.88
2022-11-15T08:40:29.866Z,931.89
2022-11-15T08:41:29.886Z,931.93
2022-11-15T08:42:29.919Z,931.94
2022-11-15T08:43:30.434Z,931.93
2022-11-15T08:44:29.930Z,931.95
2022-11-15T08:45:29.950Z,931.96
2022-11-15T08:46:29.961Z,931.92
2022-11-15T08:47:29.976Z,931.97
2022-11-15T08:48:30.291Z,931.98
2022-11-15T08:49:30.010Z,931.96
2022-11-15T08:50:30.029Z,931.99
2022-11-15T08:51:30.042Z,932.03
2022-11-15T08:52:30.056Z,932.04
2022-11-15T08:53:30.076Z,932.02
2022-11-15T08:54:30.091Z,932.05
2022-11-15T08:55:30.103Z,932.09
2022-11-15T08:56:30.120Z,932.09
2022-11-15T08:57:30.134Z,932.10
2022-11-15T08:58:30.498Z,932.07
2022-11-15T08:59:30.166Z,932.10
2022-11-15T09:00:30.183Z,932.14
2022-11-15T09:01:30.268Z,932.12
2022-11-15T09:02:30.214Z,932.14
2022-11-15T09:03:30.231Z,932.21
2022-11-15T09:04:30.246Z,932.18
2022-11-15T09:05:30.262Z,932.20
2022-11-15T09:06:30.278Z,932.21
2022-11-15T09:07:30.356Z,932.21
2022-11-15T09:08:46.992Z,932.23
2022-11-15T09:09:30.326Z,932.26
2022-11-15T09:10:30.340Z,932.28
2022-11-15T09:11:30.358Z,932.25
2022-11-15T09:12:30.372Z,932.30
2022-11-15T09:13:30.388Z,932.29
2022-11-15T09:14:30.424Z,932.33
2022-11-15T09:15:30.420Z,932.37
2022-11-15T09:16:30.434Z,932.41
2022-11-15T09:17:30.450Z,932.40
2022-11-15T09:18:30.886Z,932.44
2022-11-15T09:19:30.482Z,932.50
2022-11-15T09:20:30.498Z,932.50
2022-11-15T09:21:30.513Z,932.51
2022-11-15T09:22:30.530Z,932.54
2022-11-15T09:23:30.545Z,932.55
2022-11-15T09:24:30.561Z,932.57
2022-11-15T09:25:30.579Z,932.61
2022-11-15T09:26:30.593Z,932.64
2022-11-15T09:27:30.609Z,932.69
2022-11-15T09:28:31.182Z,932.71
2022-11-15T09:29:30.640Z,932.73
2022-11-15T09:30:30.676Z,932.77
2022-11-15T09:31:30.675Z,932.79
2022-11-15T09:32:36.262Z,932.81
2022-11-15T09:33:31.161Z,932.77
2022-11-15T09:34:30.720Z,932.83
2022-11-15T09:35:30.734Z,932.85
2022-11-15T09:36:30.750Z,932.90
2022-11-15T09:37:30.766Z,932.91
2022-11-15T09:38:31.196Z,932.89
2022-11-15T09:39:30.798Z,932.92
2022-11-15T09:40:30.812Z,932.94
2022-11-15T09:41:30.834Z,933.00
2022-11-15T09:42:30.845Z,933.01
2022-11-15T09:43:30.860Z,932.98
2022-11-15T09:44:30.877Z,932.98
2022-11-15T09:45:30.891Z,933.02
2022-11-15T09:46:30.928Z,933.05
2022-11-15T09:47:30.923Z,933.09
2022-11-15T09:48:31.323Z,933.11
2022-11-15T09:49:30.954Z,933.12
2022-11-15T09:50:30.972Z,933.14
2022-11-15T09:51:30.986Z,933.15
2022-11-15T09:52:31.004Z,933.12
2022-11-15T09:54:13.529Z,933.13
2022-11-15T09:54:52.342Z,933.12
2022-11-15T09:55:31.050Z,933.13
2022-11-15T09:56:31.072Z,933.15
2022-11-15T09:57:31.082Z,933.11
2022-11-15T09:58:31.509Z,933.13
2022-11-15T09:59:31.111Z,933.15
2022-11-15T10:00:48.180Z,933.14
2022-11-15T10:01:31.285Z,933.14
2022-11-15T10:02:31.183Z,933.18
2022-11-15T10:03:31.175Z,933.21
2022-11-15T10:04:31.191Z,933.17
2022-11-15T10:05:31.208Z,933.22
2022-11-15T10:06:31.223Z,933.25
2022-11-15T10:07:31.295Z,933.29
2022-11-15T10:08:31.619Z,933.28
2022-11-15T10:09:31.269Z,933.31
2022-11-15T10:10:31.287Z,933.34
2022-11-15T10:11:39.492Z,933.34
2022-11-15T10:12:31.316Z,933.40
2022-11-15T10:13:31.336Z,933.41
2022-11-15T10:14:31.348Z,933.39
2022-11-15T10:15:31.366Z,933.40
2022-11-15T10:16:31.381Z,933.35
2022-11-15T10:17:31.396Z,933.37
2022-11-15T10:18:31.860Z,933.37
2022-11-15T10:19:31.427Z,933.36
2022-11-15T10:20:31.448Z,933.31
2022-11-15T10:21:31.458Z,933.32
2022-11-15T10:22:31.474Z,933.35
2022-11-15T10:23:31.490Z,933.34
2022-11-15T10:24:31.506Z,933.34
2022-11-15T10:25:31.520Z,933.37
2022-11-15T10:26:31.536Z,933.41
2022-11-15T10:27:31.552Z,933.40
2022-11-15T10:28:31.971Z,933.42
2022-11-15T10:29:31.585Z,933.47
2022-11-15T10:30:31.604Z,933.46
2022-11-15T10:31:31.615Z,933.48
2022-11-15T10:32:31.634Z,933.49
2022-11-15T10:33:31.648Z,933.54
2022-11-15T10:34:31.684Z,933.57
2022-11-15T10:35:31.679Z,933.54
2022-11-15T10:36:31.697Z,933.56
2022-11-15T10:37:31.817Z,933.55
2022-11-15T10:38:32.136Z,933.55
2022-11-15T10:39:31.741Z,933.55
2022-11-15T10:40:31.758Z,933.55
2022-11-15T10:41:31.775Z,933.58
2022-11-15T10:42:31.789Z,933.61
2022-11-15T10:43:31.806Z,933.60
2022-11-15T10:44:31.820Z,933.65
2022-11-15T10:45:31.841Z,933.68
2022-11-15T10:46:46.056Z,933.67
2022-11-15T10:47:37.761Z,933.71
2022-11-15T10:48:32.255Z,933.72
2022-11-15T10:49:31.901Z,933.72
2022-11-15T10:50:31.949Z,933.74
2022-11-15T10:51:31.931Z,933.78
2022-11-15T10:52:31.959Z,933.75
2022-11-15T10:53:31.969Z,933.74
2022-11-15T10:54:31.979Z,933.79
2022-11-15T10:55:31.997Z,933.77
2022-11-15T10:56:32.013Z,933.78
2022-11-15T10:57:32.031Z,933.82
2022-11-15T10:58:32.355Z,933.79
2022-11-15T10:59:37.636Z,933.76
2022-11-15T11:00:32.073Z,933.82
2022-11-15T11:01:32.168Z,933.82
2022-11-15T11:02:32.106Z,933.79
2022-11-15T11:03:32.126Z,933.83
2022-11-15T11:04:32.139Z,933.85
2022-11-15T11:05:35.234Z,933.87
2022-11-15T11:06:32.200Z,933.85
2022-11-15T11:07:32.291Z,933.85
2022-11-15T11:08:32.479Z,933.88
2022-11-15T11:09:32.219Z,933.91
2022-11-15T11:11:32.248Z,933.89
2022-11-15T11:12:32.270Z,933.92
2022-11-15T11:13:32.281Z,933.90
2022-11-15T11:14:32.306Z,933.90
2022-11-15T11:15:32.311Z,933.88
2022-11-15T11:16:36.304Z,933.88
2022-11-15T11:17:32.346Z,933.85
2022-11-15T11:18:32.698Z,933.86
2022-11-15T11:19:32.376Z,933.87
2022-11-15T11:20:32.390Z,933.87
2022-11-15T11:21:38.404Z,933.85
2022-11-15T11:22:32.449Z,933.88
2022-11-15T11:23:32.699Z,933.89
2022-11-15T11:24:32.454Z,933.89
2022-11-15T11:25:32.470Z,933.88
2022-11-15T11:26:32.488Z,933.87
2022-11-15T11:27:32.499Z,933.90
2022-11-15T11:28:32.735Z,933.89
2022-11-15T11:29:32.531Z,933.87
2022-11-15T11:30:32.549Z,933.89
2022-11-15T11:31:32.565Z,933.93
2022-11-15T11:32:32.580Z,933.97
2022-11-15T11:33:32.598Z,933.95
2022-11-15T11:34:32.613Z,933.98
2022-11-15T11:35:32.627Z,933.99
2022-11-15T11:36:32.688Z,934.02
2022-11-15T11:37:32.660Z,934.03
2022-11-15T11:38:33.081Z,934.06
2022-11-15T11:39:32.692Z,934.03
2022-11-15T11:40:32.707Z,934.02
2022-11-15T11:41:32.805Z,934.02
2022-11-15T11:42:32.739Z,934.04
2022-11-15T11:43:32.756Z,934.05
2022-11-15T11:44:32.772Z,934.02
2022-11-15T11:45:32.788Z,934.05
2022-11-15T11:46:32.803Z,934.07
2022-11-15T11:47:32.818Z,934.05
2022-11-15T11:48:33.195Z,934.01
2022-11-15T11:49:32.851Z,934.04
2022-11-15T11:50:32.866Z,934.05
2022-11-15T11:51:32.879Z,934.07
2022-11-15T11:52:32.896Z,934.07
2022-11-15T11:53:32.914Z,934.10
2022-11-15T11:54:32.958Z,934.11
2022-11-15T11:55:32.943Z,934.14
2022-11-15T11:56:32.961Z,934.14
2022-11-15T11:57:32.978Z,934.16
2022-11-15T11:58:33.259Z,934.13
2022-11-15T11:59:33.007Z,934.17
2022-11-15T12:00:33.024Z,934.14
2022-11-15T12:01:33.089Z,934.13
2022-11-15T12:02:33.162Z,934.13
2022-11-15T12:03:33.073Z,934.15
2022-11-15T12:04:33.291Z,934.16
2022-11-15T12:05:33.119Z,934.11
2022-11-15T12:06:33.120Z,934.15
2022-11-15T12:07:33.179Z,934.15
2022-11-15T12:08:33.552Z,934.11
2022-11-15T12:09:33.174Z,934.12
2022-11-15T12:10:33.216Z,934.14
2022-11-15T12:11:33.203Z,934.16
2022-11-15T12:12:33.216Z,934.15
2022-11-15T12:13:33.231Z,934.14
2022-11-15T12:14:33.250Z,934.15
2022-11-15T12:15:33.264Z,934.16
2022-11-15T12:16:33.283Z,934.10
2022-11-15T12:17:33.293Z,934.14
2022-11-15T12:18:33.725Z,934.12
2022-11-15T12:19:33.325Z,934.13
2022-11-15T12:20:33.343Z,934.12
2022-11-15T12:21:33.360Z,934.11
2022-11-15T12:22:33.380Z,934.15
2022-11-15T12:23:33.392Z,934.14
2022-11-15T12:24:33.407Z,934.15
2022-11-15T12:25:33.421Z,934.20
2022-11-15T12:26:33.459Z,934.22
2022-11-15T12:27:33.454Z,934.20
2022-11-15T12:28:33.889Z,934.21
2022-11-15T12:29:33.487Z,934.17